sensor_id;sensor_type;location;lat;lon;timestamp;P1;durP1;ratioP1;P2;durP2;ratioP2
26478;SDS011;14163;-26.142;27.992;2022-07-12T00:01:07;7.53;;;5.40;;
26478;SDS011;14163;-26.142;27.992;2022-07-12T00:03:36;7.17;;;5.80;;
26478;SDS011;14163;-26.142;27.992;2022-07-12T00:06:05;6.47;;;5.27;;
26478;SDS011;14163;-26.142;27.992;2022-07-12T00:08:34;7.20;;;5.70;;
26478;SDS011;14163;-26.142;27.992;2022-07-12T00:11:05;8.20;;;5.50;;
26478;SDS011;14163;-26.142;27.992;2022-07-12T00:13:35;7.00;;;5.50;;
26478;SDS011;14163;-26.142;27.992;2022-07-12T00:16:04;5.53;;;5.00;;
26478;SDS011;14163;-26.142;27.992;2022-07-12T00:18:33;8.00;;;5.47;;
26478;SDS011;14163;-26.142;27.992;2022-07-12T00:21:03;7.87;;;5.50;;
26478;SDS011;14163;-26.142;27.992;2022-07-12T00:23:32;5.60;;;5.03;;
26478;SDS011;14163;-26.142;27.992;2022-07-12T00:26:02;7.97;;;5.60;;
26478;SDS011;14163;-26.142;27.992;2022-07-12T00:28:33;7.80;;;5.90;;
26478;SDS011;14163;-26.142;27.992;2022-07-12T00:31:02;7.20;;;5.97;;
26478;SDS011;14163;-26.142;27.992;2022-07-12T00:33:31;6.30;;;5.70;;
26478;SDS011;14163;-26.142;27.992;2022-07-12T00:36:01;8.37;;;6.00;;
26478;SDS011;14163;-26.142;27.992;2022-07-12T00:38:30;6.83;;;5.30;;
26478;SDS011;14163;-26.142;27.992;2022-07-12T00:40:59;6.97;;;5.30;;
26478;SDS011;14163;-26.142;27.992;2022-07-12T00:43:30;6.50;;;4.97;;
26478;SDS011;14163;-26.142;27.992;2022-07-12T00:45:59;6.83;;;5.17;;
26478;SDS011;14163;-26.142;27.992;2022-07-12T00:48:29;5.90;;;5.27;;
26478;SDS011;14163;-26.142;27.992;2022-07-12T00:51:00;8.90;;;5.23;;
26478;SDS011;14163;-26.142;27.992;2022-07-12T00:53:29;11.10;;;6.60;;
26478;SDS011;14163;-26.142;27.992;2022-07-12T00:55:58;9.17;;;6.40;;
26478;SDS011;14163;-26.142;27.992;2022-07-12T00:58:28;9.30;;;6.13;;
26478;SDS011;14163;-26.142;27.992;2022-07-12T01:00:58;11.13;;;6.00;;
26478;SDS011;14163;-26.142;27.992;2022-07-12T01:03:28;9.10;;;5.70;;
26478;SDS011;14163;-26.142;27.992;2022-07-12T01:05:57;6.70;;;5.90;;
26478;SDS011;14163;-26.142;27.992;2022-07-12T01:08:27;8.40;;;6.07;;
26478;SDS011;14163;-26.142;27.992;2022-07-12T01:10:58;7.23;;;5.63;;
26478;SDS011;14163;-26.142;27.992;2022-07-12T01:13:27;11.80;;;6.60;;
26478;SDS011;14163;-26.142;27.992;2022-07-12T01:15:58;9.23;;;5.80;;
26478;SDS011;14163;-26.142;27.992;2022-07-12T01:18:28;9.47;;;6.20;;
26478;SDS011;14163;-26.142;27.992;2022-07-12T01:20:57;8.77;;;5.10;;
26478;SDS011;14163;-26.142;27.992;2022-07-12T01:23:30;8.47;;;6.40;;
26478;SDS011;14163;-26.142;27.992;2022-07-12T01:26:00;9.27;;;5.93;;
26478;SDS011;14163;-26.142;27.992;2022-07-12T01:28:30;10.60;;;5.97;;
26478;SDS011;14163;-26.142;27.992;2022-07-12T01:31:00;7.83;;;5.80;;
26478;SDS011;14163;-26.142;27.992;2022-07-12T01:33:29;11.60;;;6.53;;
26478;SDS011;14163;-26.142;27.992;2022-07-12T01:35:59;10.47;;;6.40;;
26478;SDS011;14163;-26.142;27.992;2022-07-12T01:38:31;11.00;;;7.00;;
26478;SDS011;14163;-26.142;27.992;2022-07-12T01:41:00;11.93;;;6.97;;
26478;SDS011;14163;-26.142;27.992;2022-07-12T01:43:29;7.80;;;6.20;;
26478;SDS011;14163;-26.142;27.992;2022-07-12T01:45:59;13.43;;;6.60;;
26478;SDS011;14163;-26.142;27.992;2022-07-12T01:48:28;12.60;;;7.03;;
26478;SDS011;14163;-26.142;27.992;2022-07-12T01:50:57;14.50;;;7.63;;
26478;SDS011;14163;-26.142;27.992;2022-07-12T01:53:26;8.23;;;6.50;;
26478;SDS011;14163;-26.142;27.992;2022-07-12T01:55:58;10.27;;;6.63;;
26478;SDS011;14163;-26.142;27.992;2022-07-12T01:58:27;13.80;;;8.50;;
26478;SDS011;14163;-26.142;27.992;2022-07-12T02:00:56;9.23;;;7.50;;
26478;SDS011;14163;-26.142;27.992;2022-07-12T02:03:26;8.93;;;7.20;;
26478;SDS011;14163;-26.142;27.992;2022-07-12T02:05:55;10.40;;;7.63;;
26478;SDS011;14163;-26.142;27.992;2022-07-12T02:08:24;11.63;;;7.70;;
26478;SDS011;14163;-26.142;27.992;2022-07-12T02:10:53;10.90;;;7.53;;
26478;SDS011;14163;-26.142;27.992;2022-07-12T02:13:24;11.40;;;7.67;;
26478;SDS011;14163;-26.142;27.992;2022-07-12T02:15:53;10.10;;;7.70;;
26478;SDS011;14163;-26.142;27.992;2022-07-12T02:18:23;11.90;;;7.43;;
26478;SDS011;14163;-26.142;27.992;2022-07-12T02:20:52;13.00;;;7.60;;
26478;SDS011;14163;-26.142;27.992;2022-07-12T02:23:21;10.30;;;7.77;;
26478;SDS011;14163;-26.142;27.992;2022-07-12T02:25:51;13.63;;;7.90;;
26478;SDS011;14163;-26.142;27.992;2022-07-12T02:28:20;10.27;;;7.70;;
26478;SDS011;14163;-26.142;27.992;2022-07-12T02:30:51;10.80;;;7.83;;
26478;SDS011;14163;-26.142;27.992;2022-07-12T02:33:20;10.90;;;8.00;;
26478;SDS011;14163;-26.142;27.992;2022-07-12T02:35:49;9.57;;;8.13;;
26478;SDS011;14163;-26.142;27.992;2022-07-12T02:38:18;11.57;;;8.50;;
26478;SDS011;14163;-26.142;27.992;2022-07-12T02:40:47;12.20;;;8.03;;
26478;SDS011;14163;-26.142;27.992;2022-07-12T02:43:22;9.73;;;8.00;;
26478;SDS011;14163;-26.142;27.992;2022-07-12T02:45:54;9.40;;;8.00;;
26478;SDS011;14163;-26.142;27.992;2022-07-12T02:48:30;12.47;;;8.17;;
26478;SDS011;14163;-26.142;27.992;2022-07-12T02:50:59;9.07;;;7.83;;
26478;SDS011;14163;-26.142;27.992;2022-07-12T02:53:29;11.37;;;7.80;;
26478;SDS011;14163;-26.142;27.992;2022-07-12T02:55:58;10.93;;;7.70;;
26478;SDS011;14163;-26.142;27.992;2022-07-12T02:58:28;12.10;;;7.57;;
26478;SDS011;14163;-26.142;27.992;2022-07-12T03:00:59;11.63;;;8.90;;
26478;SDS011;14163;-26.142;27.992;2022-07-12T03:03:28;9.20;;;7.40;;
26478;SDS011;14163;-26.142;27.992;2022-07-12T03:05:57;13.27;;;8.00;;
26478;SDS011;14163;-26.142;27.992;2022-07-12T03:08:26;9.10;;;7.23;;
26478;SDS011;14163;-26.142;27.992;2022-07-12T03:10:56;9.37;;;7.57;;
26478;SDS011;14163;-26.142;27.992;2022-07-12T03:13:25;10.60;;;7.60;;
26478;SDS011;14163;-26.142;27.992;2022-07-12T03:15:54;10.00;;;7.30;;
26478;SDS011;14163;-26.142;27.992;2022-07-12T03:18:25;11.13;;;7.80;;
26478;SDS011;14163;-26.142;27.992;2022-07-12T03:20:54;11.83;;;8.27;;
26478;SDS011;14163;-26.142;27.992;2022-07-12T03:23:23;11.90;;;7.60;;
26478;SDS011;14163;-26.142;27.992;2022-07-12T03:25:52;9.70;;;7.17;;
26478;SDS011;14163;-26.142;27.992;2022-07-12T03:28:22;9.13;;;7.87;;
26478;SDS011;14163;-26.142;27.992;2022-07-12T03:30:51;10.40;;;7.40;;
26478;SDS011;14163;-26.142;27.992;2022-07-12T03:33:20;11.30;;;7.83;;
26478;SDS011;14163;-26.142;27.992;2022-07-12T03:35:51;12.07;;;8.03;;
26478;SDS011;14163;-26.142;27.992;2022-07-12T03:38:20;7.83;;;6.87;;
26478;SDS011;14163;-26.142;27.992;2022-07-12T03:40:49;10.17;;;6.93;;
26478;SDS011;14163;-26.142;27.992;2022-07-12T03:43:18;8.43;;;6.83;;
26478;SDS011;14163;-26.142;27.992;2022-07-12T03:45:48;9.30;;;7.67;;
26478;SDS011;14163;-26.142;27.992;2022-07-12T03:48:17;7.93;;;6.83;;
26478;SDS011;14163;-26.142;27.992;2022-07-12T03:50:46;11.33;;;7.90;;
26478;SDS011;14163;-26.142;27.992;2022-07-12T03:53:17;10.97;;;7.20;;
26478;SDS011;14163;-26.142;27.992;2022-07-12T03:55:46;11.30;;;8.20;;
26478;SDS011;14163;-26.142;27.992;2022-07-12T03:58:16;10.10;;;7.53;;
26478;SDS011;14163;-26.142;27.992;2022-07-12T04:00:45;11.03;;;7.20;;
26478;SDS011;14163;-26.142;27.992;2022-07-12T06:05:35;26.50;;;17.93;;
26478;SDS011;14163;-26.142;27.992;2022-07-12T06:08:04;24.00;;;15.73;;
26478;SDS011;14163;-26.142;27.992;2022-07-12T06:10:33;24.70;;;17.37;;
26478;SDS011;14163;-26.142;27.992;2022-07-12T06:13:02;23.70;;;17.53;;
26478;SDS011;14163;-26.142;27.992;2022-07-12T06:15:38;25.03;;;17.87;;
26478;SDS011;14163;-26.142;27.992;2022-07-12T06:18:22;29.00;;;19.47;;
26478;SDS011;14163;-26.142;27.992;2022-07-12T06:20:55;28.43;;;19.67;;
26478;SDS011;14163;-26.142;27.992;2022-07-12T06:23:42;25.30;;;18.90;;
26478;SDS011;14163;-26.142;27.992;2022-07-12T06:26:12;29.93;;;20.03;;
26478;SDS011;14163;-26.142;27.992;2022-07-12T06:28:41;25.47;;;19.80;;
26478;SDS011;14163;-26.142;27.992;2022-07-12T06:31:11;31.33;;;20.50;;
26478;SDS011;14163;-26.142;27.992;2022-07-12T06:33:41;34.63;;;21.87;;
26478;SDS011;14163;-26.142;27.992;2022-07-12T06:36:13;31.70;;;22.00;;
26478;SDS011;14163;-26.142;27.992;2022-07-12T06:38:42;33.70;;;22.00;;
26478;SDS011;14163;-26.142;27.992;2022-07-12T06:41:11;27.23;;;21.30;;
26478;SDS011;14163;-26.142;27.992;2022-07-12T06:43:40;30.43;;;22.47;;
26478;SDS011;14163;-26.142;27.992;2022-07-12T06:46:09;28.13;;;20.40;;
26478;SDS011;14163;-26.142;27.992;2022-07-12T06:48:38;26.37;;;19.87;;
26478;SDS011;14163;-26.142;27.992;2022-07-12T06:51:08;27.27;;;19.17;;
26478;SDS011;14163;-26.142;27.992;2022-07-12T06:53:39;24.87;;;19.03;;
26478;SDS011;14163;-26.142;27.992;2022-07-12T06:56:08;26.07;;;17.87;;
26478;SDS011;14163;-26.142;27.992;2022-07-12T06:58:37;27.03;;;17.73;;
26478;SDS011;14163;-26.142;27.992;2022-07-12T07:01:06;19.60;;;17.10;;
26478;SDS011;14163;-26.142;27.992;2022-07-12T07:03:35;23.07;;;16.13;;
26478;SDS011;14163;-26.142;27.992;2022-07-12T07:06:05;25.80;;;16.50;;
26478;SDS011;14163;-26.142;27.992;2022-07-12T07:08:34;24.00;;;16.30;;
26478;SDS011;14163;-26.142;27.992;2022-07-12T07:11:05;20.20;;;15.33;;
26478;SDS011;14163;-26.142;27.992;2022-07-12T07:13:35;19.20;;;14.53;;
26478;SDS011;14163;-26.142;27.992;2022-07-12T07:16:05;21.87;;;15.27;;
26478;SDS011;14163;-26.142;27.992;2022-07-12T07:18:34;19.13;;;13.63;;
26478;SDS011;14163;-26.142;27.992;2022-07-12T07:21:04;16.20;;;13.33;;
26478;SDS011;14163;-26.142;27.992;2022-07-12T07:23:33;16.97;;;12.70;;
26478;SDS011;14163;-26.142;27.992;2022-07-12T07:26:02;18.77;;;13.00;;
26478;SDS011;14163;-26.142;27.992;2022-07-12T07:28:33;16.60;;;11.63;;
26478;SDS011;14163;-26.142;27.992;2022-07-12T07:31:23;12.37;;;9.37;;
26478;SDS011;14163;-26.142;27.992;2022-07-12T07:33:50;12.00;;;9.70;;
26478;SDS011;14163;-26.142;27.992;2022-07-12T07:36:19;15.50;;;11.03;;
26478;SDS011;14163;-26.142;27.992;2022-07-12T07:38:49;15.80;;;10.97;;
26478;SDS011;14163;-26.142;27.992;2022-07-12T07:41:20;12.60;;;10.80;;
26478;SDS011;14163;-26.142;27.992;2022-07-12T07:43:49;15.10;;;10.73;;
26478;SDS011;14163;-26.142;27.992;2022-07-12T07:46:18;20.03;;;10.37;;
26478;SDS011;14163;-26.142;27.992;2022-07-12T07:48:47;11.33;;;8.90;;
26478;SDS011;14163;-26.142;27.992;2022-07-12T07:51:16;15.47;;;9.23;;
26478;SDS011;14163;-26.142;27.992;2022-07-12T07:53:45;9.97;;;6.63;;
26478;SDS011;14163;-26.142;27.992;2022-07-12T07:56:15;6.40;;;5.80;;
26478;SDS011;14163;-26.142;27.992;2022-07-12T07:58:45;6.47;;;5.87;;
26478;SDS011;14163;-26.142;27.992;2022-07-12T08:01:14;6.13;;;5.50;;
26478;SDS011;14163;-26.142;27.992;2022-07-12T08:03:44;10.90;;;8.20;;
26478;SDS011;14163;-26.142;27.992;2022-07-12T08:06:15;8.93;;;7.30;;
26478;SDS011;14163;-26.142;27.992;2022-07-12T08:08:44;7.33;;;6.40;;
26478;SDS011;14163;-26.142;27.992;2022-07-12T08:11:13;13.10;;;6.87;;
26478;SDS011;14163;-26.142;27.992;2022-07-12T08:13:42;7.03;;;6.03;;
26478;SDS011;14163;-26.142;27.992;2022-07-12T08:16:13;8.07;;;6.70;;
26478;SDS011;14163;-26.142;27.992;2022-07-12T08:18:42;9.00;;;7.50;;
26478;SDS011;14163;-26.142;27.992;2022-07-12T08:21:12;6.90;;;6.20;;
26478;SDS011;14163;-26.142;27.992;2022-07-12T08:23:41;11.93;;;7.03;;
26478;SDS011;14163;-26.142;27.992;2022-07-12T08:26:10;14.10;;;6.40;;
26478;SDS011;14163;-26.142;27.992;2022-07-12T08:28:39;5.40;;;4.90;;
26478;SDS011;14163;-26.142;27.992;2022-07-12T08:31:10;6.97;;;5.13;;
26478;SDS011;14163;-26.142;27.992;2022-07-12T08:33:40;7.67;;;6.90;;
26478;SDS011;14163;-26.142;27.992;2022-07-12T08:36:12;11.50;;;10.30;;
26478;SDS011;14163;-26.142;27.992;2022-07-12T08:38:42;9.37;;;7.87;;
26478;SDS011;14163;-26.142;27.992;2022-07-12T08:41:11;10.47;;;8.50;;
26478;SDS011;14163;-26.142;27.992;2022-07-12T08:43:41;7.63;;;6.37;;
26478;SDS011;14163;-26.142;27.992;2022-07-12T08:46:12;5.77;;;4.83;;
26478;SDS011;14163;-26.142;27.992;2022-07-12T08:48:43;5.93;;;5.30;;
26478;SDS011;14163;-26.142;27.992;2022-07-12T08:51:12;4.17;;;3.87;;
26478;SDS011;14163;-26.142;27.992;2022-07-12T08:53:42;4.40;;;3.90;;
26478;SDS011;14163;-26.142;27.992;2022-07-12T08:56:30;5.63;;;5.13;;
26478;SDS011;14163;-26.142;27.992;2022-07-12T08:59:08;5.93;;;5.37;;
26478;SDS011;14163;-26.142;27.992;2022-07-12T09:01:41;6.40;;;5.80;;
26478;SDS011;14163;-26.142;27.992;2022-07-12T09:04:12;7.30;;;5.60;;
26478;SDS011;14163;-26.142;27.992;2022-07-12T09:06:42;7.70;;;5.80;;
26478;SDS011;14163;-26.142;27.992;2022-07-12T09:09:11;6.90;;;4.97;;
26478;SDS011;14163;-26.142;27.992;2022-07-12T09:11:53;7.53;;;4.70;;
26478;SDS011;14163;-26.142;27.992;2022-07-12T09:14:22;6.80;;;5.60;;
26478;SDS011;14163;-26.142;27.992;2022-07-12T09:16:59;5.77;;;5.17;;
26478;SDS011;14163;-26.142;27.992;2022-07-12T09:19:35;6.40;;;5.27;;
26478;SDS011;14163;-26.142;27.992;2022-07-12T09:22:13;5.37;;;4.97;;
26478;SDS011;14163;-26.142;27.992;2022-07-12T09:24:43;5.40;;;4.97;;
26478;SDS011;14163;-26.142;27.992;2022-07-12T09:27:12;5.57;;;5.17;;
26478;SDS011;14163;-26.142;27.992;2022-07-12T09:29:48;4.13;;;3.73;;
26478;SDS011;14163;-26.142;27.992;2022-07-12T09:32:19;5.43;;;5.03;;
26478;SDS011;14163;-26.142;27.992;2022-07-12T09:35:06;6.83;;;5.87;;
26478;SDS011;14163;-26.142;27.992;2022-07-12T09:37:52;7.13;;;5.40;;
26478;SDS011;14163;-26.142;27.992;2022-07-12T09:40:21;6.37;;;5.77;;
26478;SDS011;14163;-26.142;27.992;2022-07-12T09:42:50;6.10;;;5.50;;
26478;SDS011;14163;-26.142;27.992;2022-07-12T09:45:20;5.63;;;5.13;;
26478;SDS011;14163;-26.142;27.992;2022-07-12T09:47:51;6.80;;;6.20;;
26478;SDS011;14163;-26.142;27.992;2022-07-12T09:50:21;6.70;;;6.10;;
26478;SDS011;14163;-26.142;27.992;2022-07-12T09:52:50;6.83;;;6.33;;
26478;SDS011;14163;-26.142;27.992;2022-07-12T09:55:22;9.80;;;7.10;;
26478;SDS011;14163;-26.142;27.992;2022-07-12T09:57:55;8.10;;;7.40;;
26478;SDS011;14163;-26.142;27.992;2022-07-12T10:00:26;9.20;;;8.40;;
26478;SDS011;14163;-26.142;27.992;2022-07-12T10:02:58;9.83;;;8.03;;
26478;SDS011;14163;-26.142;27.992;2022-07-12T10:05:28;14.10;;;12.40;;
26478;SDS011;14163;-26.142;27.992;2022-07-12T10:07:59;14.37;;;13.00;;
26478;SDS011;14163;-26.142;27.992;2022-07-12T10:10:29;20.23;;;18.37;;
26478;SDS011;14163;-26.142;27.992;2022-07-12T10:12:59;9.20;;;8.37;;
26478;SDS011;14163;-26.142;27.992;2022-07-12T10:15:28;8.77;;;7.97;;
26478;SDS011;14163;-26.142;27.992;2022-07-12T10:18:05;11.00;;;8.57;;
26478;SDS011;14163;-26.142;27.992;2022-07-12T10:20:34;9.07;;;8.27;;
26478;SDS011;14163;-26.142;27.992;2022-07-12T10:26:00;12.23;;;9.30;;
26478;SDS011;14163;-26.142;27.992;2022-07-12T10:29:00;12.00;;;9.73;;
26478;SDS011;14163;-26.142;27.992;2022-07-12T10:31:32;9.93;;;9.00;;
26478;SDS011;14163;-26.142;27.992;2022-07-12T10:34:12;12.70;;;8.50;;
26478;SDS011;14163;-26.142;27.992;2022-07-12T10:39:36;9.20;;;8.30;;
26478;SDS011;14163;-26.142;27.992;2022-07-12T10:42:16;8.90;;;7.70;;
26478;SDS011;14163;-26.142;27.992;2022-07-12T10:44:46;12.13;;;7.90;;
26478;SDS011;14163;-26.142;27.992;2022-07-12T10:47:15;8.20;;;7.40;;
26478;SDS011;14163;-26.142;27.992;2022-07-12T10:49:50;8.97;;;8.17;;
26478;SDS011;14163;-26.142;27.992;2022-07-12T10:52:23;9.80;;;8.90;;
26478;SDS011;14163;-26.142;27.992;2022-07-12T10:57:47;9.60;;;8.70;;
26478;SDS011;14163;-26.142;27.992;2022-07-12T11:00:18;9.43;;;8.47;;
26478;SDS011;14163;-26.142;27.992;2022-07-12T11:02:48;9.97;;;8.73;;
26478;SDS011;14163;-26.142;27.992;2022-07-12T11:05:25;8.27;;;7.50;;
26478;SDS011;14163;-26.142;27.992;2022-07-12T11:07:54;8.20;;;7.50;;
26478;SDS011;14163;-26.142;27.992;2022-07-12T11:10:24;8.30;;;7.50;;
26478;SDS011;14163;-26.142;27.992;2022-07-12T11:12:53;9.03;;;7.60;;
26478;SDS011;14163;-26.142;27.992;2022-07-12T11:15:23;8.47;;;7.73;;
26478;SDS011;14163;-26.142;27.992;2022-07-12T11:17:52;7.87;;;7.27;;
26478;SDS011;14163;-26.142;27.992;2022-07-12T11:20:21;7.83;;;7.23;;
26478;SDS011;14163;-26.142;27.992;2022-07-12T11:22:58;8.43;;;7.73;;
26478;SDS011;14163;-26.142;27.992;2022-07-12T11:25:27;8.03;;;7.20;;
26478;SDS011;14163;-26.142;27.992;2022-07-12T11:27:57;6.63;;;6.03;;
26478;SDS011;14163;-26.142;27.992;2022-07-12T11:30:27;9.80;;;7.23;;
26478;SDS011;14163;-26.142;27.992;2022-07-12T11:32:56;10.13;;;7.50;;
26478;SDS011;14163;-26.142;27.992;2022-07-12T11:35:25;8.00;;;6.60;;
26478;SDS011;14163;-26.142;27.992;2022-07-12T11:37:57;7.23;;;6.57;;
26478;SDS011;14163;-26.142;27.992;2022-07-12T11:40:27;9.03;;;8.17;;
26478;SDS011;14163;-26.142;27.992;2022-07-12T11:42:57;7.77;;;6.93;;
26478;SDS011;14163;-26.142;27.992;2022-07-12T11:45:27;7.10;;;6.60;;
26478;SDS011;14163;-26.142;27.992;2022-07-12T11:47:58;21.23;;;8.30;;
26478;SDS011;14163;-26.142;27.992;2022-07-12T11:50:28;7.60;;;7.00;;
26478;SDS011;14163;-26.142;27.992;2022-07-12T11:53:02;10.00;;;7.80;;
26478;SDS011;14163;-26.142;27.992;2022-07-12T11:55:31;7.70;;;7.07;;
26478;SDS011;14163;-26.142;27.992;2022-07-12T11:58:08;7.00;;;6.40;;
26478;SDS011;14163;-26.142;27.992;2022-07-12T12:00:37;12.63;;;8.63;;
26478;SDS011;14163;-26.142;27.992;2022-07-12T14:09:12;8.80;;;7.90;;
26478;SDS011;14163;-26.142;27.992;2022-07-12T14:11:41;9.10;;;8.20;;
26478;SDS011;14163;-26.142;27.992;2022-07-12T14:14:11;8.77;;;7.60;;
26478;SDS011;14163;-26.142;27.992;2022-07-12T14:16:40;8.90;;;8.10;;
26478;SDS011;14163;-26.142;27.992;2022-07-12T14:19:09;10.60;;;7.23;;
26478;SDS011;14163;-26.142;27.992;2022-07-12T14:21:38;8.50;;;7.70;;
26478;SDS011;14163;-26.142;27.992;2022-07-12T14:24:07;8.97;;;7.57;;
26478;SDS011;14163;-26.142;27.992;2022-07-12T14:26:38;11.60;;;8.47;;
26478;SDS011;14163;-26.142;27.992;2022-07-12T14:29:07;9.27;;;8.30;;
26478;SDS011;14163;-26.142;27.992;2022-07-12T14:31:37;12.93;;;8.17;;
26478;SDS011;14163;-26.142;27.992;2022-07-12T14:34:06;8.77;;;7.87;;
26478;SDS011;14163;-26.142;27.992;2022-07-12T14:36:35;9.67;;;7.67;;
26478;SDS011;14163;-26.142;27.992;2022-07-12T14:39:04;7.50;;;6.73;;
26478;SDS011;14163;-26.142;27.992;2022-07-12T14:41:33;9.20;;;8.23;;
26478;SDS011;14163;-26.142;27.992;2022-07-12T14:44:04;9.37;;;8.50;;
26478;SDS011;14163;-26.142;27.992;2022-07-12T14:46:34;11.17;;;9.03;;
26478;SDS011;14163;-26.142;27.992;2022-07-12T14:49:03;9.53;;;8.67;;
26478;SDS011;14163;-26.142;27.992;2022-07-12T14:51:33;11.30;;;8.53;;
26478;SDS011;14163;-26.142;27.992;2022-07-12T14:54:02;10.60;;;9.50;;
26478;SDS011;14163;-26.142;27.992;2022-07-12T14:56:31;13.07;;;9.40;;
26478;SDS011;14163;-26.142;27.992;2022-07-12T14:59:00;11.50;;;9.90;;
26478;SDS011;14163;-26.142;27.992;2022-07-12T15:01:31;11.20;;;9.83;;
26478;SDS011;14163;-26.142;27.992;2022-07-12T15:04:01;11.13;;;10.03;;
26478;SDS011;14163;-26.142;27.992;2022-07-12T15:06:31;14.23;;;11.13;;
26478;SDS011;14163;-26.142;27.992;2022-07-12T15:09:01;13.93;;;11.53;;
26478;SDS011;14163;-26.142;27.992;2022-07-12T15:11:30;12.53;;;11.17;;
26478;SDS011;14163;-26.142;27.992;2022-07-12T15:13:59;12.27;;;10.30;;
26478;SDS011;14163;-26.142;27.992;2022-07-12T15:16:31;13.17;;;11.87;;
26478;SDS011;14163;-26.142;27.992;2022-07-12T15:19:00;15.53;;;12.83;;
26478;SDS011;14163;-26.142;27.992;2022-07-12T15:21:29;19.13;;;11.60;;
26478;SDS011;14163;-26.142;27.992;2022-07-12T15:23:58;13.13;;;11.00;;
26478;SDS011;14163;-26.142;27.992;2022-07-12T15:26:28;14.33;;;11.20;;
26478;SDS011;14163;-26.142;27.992;2022-07-12T15:28:58;12.00;;;10.03;;
26478;SDS011;14163;-26.142;27.992;2022-07-12T15:31:28;13.63;;;10.40;;
26478;SDS011;14163;-26.142;27.992;2022-07-12T15:34:00;13.60;;;10.30;;
26478;SDS011;14163;-26.142;27.992;2022-07-12T15:36:29;11.00;;;10.00;;
26478;SDS011;14163;-26.142;27.992;2022-07-12T15:38:58;11.90;;;10.60;;
26478;SDS011;14163;-26.142;27.992;2022-07-12T15:41:27;16.90;;;10.37;;
26478;SDS011;14163;-26.142;27.992;2022-07-12T15:43:57;10.93;;;9.93;;
26478;SDS011;14163;-26.142;27.992;2022-07-12T15:46:29;11.87;;;10.67;;
26478;SDS011;14163;-26.142;27.992;2022-07-12T15:49:00;12.23;;;9.50;;
26478;SDS011;14163;-26.142;27.992;2022-07-12T15:51:29;11.87;;;10.10;;
26478;SDS011;14163;-26.142;27.992;2022-07-12T15:54:14;15.13;;;12.37;;
26478;SDS011;14163;-26.142;27.992;2022-07-12T15:56:44;14.93;;;13.03;;
26478;SDS011;14163;-26.142;27.992;2022-07-12T15:59:13;15.13;;;13.13;;
26478;SDS011;14163;-26.142;27.992;2022-07-12T16:01:44;16.87;;;13.53;;
26478;SDS011;14163;-26.142;27.992;2022-07-12T16:04:13;18.43;;;13.37;;
26478;SDS011;14163;-26.142;27.992;2022-07-12T16:06:43;12.60;;;11.40;;
26478;SDS011;14163;-26.142;27.992;2022-07-12T16:09:12;12.63;;;11.30;;
26478;SDS011;14163;-26.142;27.992;2022-07-12T16:11:42;13.17;;;10.93;;
26478;SDS011;14163;-26.142;27.992;2022-07-12T16:14:11;13.03;;;11.27;;
26478;SDS011;14163;-26.142;27.992;2022-07-12T16:16:40;13.47;;;11.73;;
26478;SDS011;14163;-26.142;27.992;2022-07-12T16:19:14;15.20;;;12.60;;
26478;SDS011;14163;-26.142;27.992;2022-07-12T16:21:47;13.17;;;11.80;;
26478;SDS011;14163;-26.142;27.992;2022-07-12T16:24:16;14.20;;;12.30;;
26478;SDS011;14163;-26.142;27.992;2022-07-12T16:26:45;14.90;;;12.97;;
26478;SDS011;14163;-26.142;27.992;2022-07-12T16:29:14;15.10;;;13.70;;
26478;SDS011;14163;-26.142;27.992;2022-07-12T16:31:43;14.20;;;12.63;;
26478;SDS011;14163;-26.142;27.992;2022-07-12T16:34:14;17.47;;;13.93;;
26478;SDS011;14163;-26.142;27.992;2022-07-12T16:36:44;16.20;;;14.50;;
26478;SDS011;14163;-26.142;27.992;2022-07-12T16:39:16;16.20;;;13.80;;
26478;SDS011;14163;-26.142;27.992;2022-07-12T16:41:45;16.10;;;14.37;;
26478;SDS011;14163;-26.142;27.992;2022-07-12T16:44:14;19.60;;;14.17;;
26478;SDS011;14163;-26.142;27.992;2022-07-12T16:46:44;17.30;;;15.50;;
26478;SDS011;14163;-26.142;27.992;2022-07-12T16:49:18;18.03;;;14.47;;
26478;SDS011;14163;-26.142;27.992;2022-07-12T16:51:47;20.03;;;16.90;;
26478;SDS011;14163;-26.142;27.992;2022-07-12T16:54:33;25.87;;;18.57;;
26478;SDS011;14163;-26.142;27.992;2022-07-12T16:57:08;23.27;;;18.40;;
26478;SDS011;14163;-26.142;27.992;2022-07-12T16:59:44;22.60;;;18.20;;
26478;SDS011;14163;-26.142;27.992;2022-07-12T17:02:19;21.50;;;18.10;;
26478;SDS011;14163;-26.142;27.992;2022-07-12T17:04:50;22.73;;;18.83;;
26478;SDS011;14163;-26.142;27.992;2022-07-12T17:07:21;35.50;;;31.67;;
26478;SDS011;14163;-26.142;27.992;2022-07-12T17:09:50;29.37;;;26.17;;
26478;SDS011;14163;-26.142;27.992;2022-07-12T17:12:20;30.80;;;23.60;;
26478;SDS011;14163;-26.142;27.992;2022-07-12T17:14:50;25.43;;;22.07;;
26478;SDS011;14163;-26.142;27.992;2022-07-12T17:17:20;25.83;;;20.97;;
26478;SDS011;14163;-26.142;27.992;2022-07-12T17:19:52;25.47;;;19.73;;
26478;SDS011;14163;-26.142;27.992;2022-07-12T17:22:22;24.87;;;19.67;;
26478;SDS011;14163;-26.142;27.992;2022-07-12T17:24:51;22.00;;;19.70;;
26478;SDS011;14163;-26.142;27.992;2022-07-12T17:27:20;28.73;;;20.57;;
26478;SDS011;14163;-26.142;27.992;2022-07-12T17:29:49;22.17;;;19.87;;
26478;SDS011;14163;-26.142;27.992;2022-07-12T17:32:19;25.93;;;23.07;;
26478;SDS011;14163;-26.142;27.992;2022-07-12T17:34:48;32.23;;;27.67;;
26478;SDS011;14163;-26.142;27.992;2022-07-12T17:37:18;28.17;;;25.13;;
26478;SDS011;14163;-26.142;27.992;2022-07-12T17:39:48;31.40;;;26.37;;
26478;SDS011;14163;-26.142;27.992;2022-07-12T17:42:18;29.17;;;25.70;;
26478;SDS011;14163;-26.142;27.992;2022-07-12T17:44:47;30.30;;;27.17;;
26478;SDS011;14163;-26.142;27.992;2022-07-12T17:47:16;30.33;;;27.07;;
26478;SDS011;14163;-26.142;27.992;2022-07-12T17:49:45;29.73;;;24.73;;
26478;SDS011;14163;-26.142;27.992;2022-07-12T17:52:14;30.93;;;24.40;;
26478;SDS011;14163;-26.142;27.992;2022-07-12T17:54:45;32.80;;;25.40;;
26478;SDS011;14163;-26.142;27.992;2022-07-12T17:57:14;30.10;;;25.10;;
26478;SDS011;14163;-26.142;27.992;2022-07-12T17:59:44;30.70;;;24.90;;
26478;SDS011;14163;-26.142;27.992;2022-07-12T18:02:13;29.07;;;23.67;;
26478;SDS011;14163;-26.142;27.992;2022-07-12T18:04:42;27.27;;;23.50;;
26478;SDS011;14163;-26.142;27.992;2022-07-12T18:07:12;29.60;;;23.33;;
26478;SDS011;14163;-26.142;27.992;2022-07-12T18:09:41;30.47;;;22.23;;
26478;SDS011;14163;-26.142;27.992;2022-07-12T18:12:12;25.47;;;22.00;;
26478;SDS011;14163;-26.142;27.992;2022-07-12T18:14:58;28.13;;;21.67;;
26478;SDS011;14163;-26.142;27.992;2022-07-12T18:17:27;25.60;;;20.80;;
26478;SDS011;14163;-26.142;27.992;2022-07-12T18:20:13;22.90;;;20.40;;
26478;SDS011;14163;-26.142;27.992;2022-07-12T18:22:42;25.83;;;19.87;;
26478;SDS011;14163;-26.142;27.992;2022-07-12T18:25:12;25.33;;;19.90;;
26478;SDS011;14163;-26.142;27.992;2022-07-12T18:27:43;21.63;;;19.30;;
26478;SDS011;14163;-26.142;27.992;2022-07-12T18:30:12;25.53;;;19.97;;
26478;SDS011;14163;-26.142;27.992;2022-07-12T18:32:41;26.47;;;21.90;;
26478;SDS011;14163;-26.142;27.992;2022-07-12T18:35:10;27.63;;;23.77;;
26478;SDS011;14163;-26.142;27.992;2022-07-12T18:37:39;26.50;;;23.60;;
26478;SDS011;14163;-26.142;27.992;2022-07-12T18:40:09;24.00;;;21.50;;
26478;SDS011;14163;-26.142;27.992;2022-07-12T18:42:38;23.90;;;21.30;;
26478;SDS011;14163;-26.142;27.992;2022-07-12T18:45:10;22.30;;;19.90;;